createdAt,value
2022-12-23T00:00:24.346Z,992.22
2022-12-23T00:01:24.589Z,992.15
2022-12-23T00:02:24.466Z,992.21
2022-12-23T00:03:24.457Z,992.22
2022-12-23T00:04:24.400Z,992.18
2022-12-23T00:05:24.363Z,992.15
2022-12-23T00:06:24.465Z,992.18
2022-12-23T00:07:24.588Z,992.13
2022-12-23T00:08:24.483Z,992.2
2022-12-23T00:09:24.377Z,992.14
2022-12-23T00:10:24.414Z,992.21
2022-12-23T00:11:24.711Z,992.15
2022-12-23T00:12:24.573Z,992.18
2022-12-23T00:13:24.867Z,992.18
2022-12-23T00:14:24.750Z,992.2
2022-12-23T00:15:24.795Z,992.22
2022-12-23T00:16:24.746Z,992.2
2022-12-23T00:17:25.630Z,992.18
2022-12-23T00:18:24.882Z,992.22
2022-12-23T00:19:24.909Z,992.23
2022-12-23T00:20:25.126Z,992.2
2022-12-23T00:21:25.060Z,992.22
2022-12-23T00:22:24.996Z,992.27
2022-12-23T00:23:24.722Z,992.29
2022-12-23T00:24:24.637Z,992.31
2022-12-23T00:25:24.879Z,992.29
2022-12-23T00:26:24.358Z,992.37
2022-12-23T00:27:24.577Z,992.41
2022-12-23T00:28:24.599Z,992.39
2022-12-23T00:29:24.521Z,992.39
2022-12-23T00:30:24.425Z,992.42
2022-12-23T00:31:24.643Z,992.44
2022-12-23T00:32:24.354Z,992.45
2022-12-23T00:33:24.351Z,992.42
2022-12-23T00:34:24.435Z,992.46
2022-12-23T00:35:24.351Z,992.42
2022-12-23T00:36:24.401Z,992.51
2022-12-23T00:37:24.340Z,992.47
2022-12-23T00:38:24.349Z,992.47
2022-12-23T00:39:24.343Z,992.44
2022-12-23T00:40:24.372Z,992.46
2022-12-23T00:41:24.348Z,992.48
2022-12-23T00:42:24.339Z,992.45
2022-12-23T00:43:24.347Z,992.48
2022-12-23T00:44:24.351Z,992.51
2022-12-23T00:45:24.373Z,992.52
2022-12-23T00:46:24.353Z,992.49
2022-12-23T00:47:24.343Z,992.5
2022-12-23T00:48:24.353Z,992.54
2022-12-23T00:49:24.545Z,992.52
2022-12-23T00:50:24.857Z,992.55
2022-12-23T00:51:23.881Z,992.53
2022-12-23T00:52:24.149Z,992.49
2022-12-23T00:53:24.431Z,992.54
2022-12-23T00:54:24.713Z,992.49
2022-12-23T00:55:23.984Z,992.53
2022-12-23T00:56:24.257Z,992.52
2022-12-23T00:57:24.551Z,992.48
2022-12-23T00:58:23.983Z,992.5
2022-12-23T00:59:24.166Z,992.47
2022-12-23T01:00:24.535Z,992.49
2022-12-23T01:01:24.835Z,992.5
2022-12-23T01:02:24.460Z,992.49
2022-12-23T01:03:24.369Z,992.51
2022-12-23T01:04:24.358Z,992.57
2022-12-23T01:05:24.350Z,992.59
2022-12-23T01:06:24.347Z,992.53
2022-12-23T01:07:24.365Z,992.54
2022-12-23T01:08:24.368Z,992.54
2022-12-23T01:09:24.351Z,992.52
2022-12-23T01:10:24.344Z,992.54
2022-12-23T01:11:24.359Z,992.57
2022-12-23T01:12:24.360Z,992.57
2022-12-23T01:13:24.364Z,992.61
2022-12-23T01:14:24.351Z,992.62
2022-12-23T01:15:24.352Z,992.58
2022-12-23T01:16:24.372Z,992.54
2022-12-23T01:17:24.415Z,992.52
2022-12-23T01:18:24.373Z,992.51
2022-12-23T01:19:24.364Z,992.51
2022-12-23T01:20:24.343Z,992.54
2022-12-23T01:21:24.375Z,992.56
2022-12-23T01:22:24.344Z,992.56
2022-12-23T01:23:24.353Z,992.59
2022-12-23T01:24:24.355Z,992.6
2022-12-23T01:25:24.495Z,992.64
2022-12-23T01:26:24.342Z,992.54
2022-12-23T01:27:24.341Z,992.54
2022-12-23T01:28:24.443Z,992.56
2022-12-23T01:29:24.339Z,992.59
2022-12-23T01:30:24.400Z,992.61
2022-12-23T01:31:24.389Z,992.55
2022-12-23T01:32:24.348Z,992.56
2022-12-23T01:33:24.347Z,992.59
2022-12-23T01:34:24.338Z,992.54
2022-12-23T01:35:24.367Z,992.54
2022-12-23T01:36:24.347Z,992.54
2022-12-23T01:37:24.353Z,992.52
2022-12-23T01:38:24.347Z,992.59
2022-12-23T01:39:24.339Z,992.58
2022-12-23T01:40:24.373Z,992.6
2022-12-23T01:41:24.341Z,992.59
2022-12-23T01:42:24.351Z,992.62
2022-12-23T01:43:24.343Z,992.59
2022-12-23T01:44:24.528Z,992.64
2022-12-23T01:45:24.410Z,992.67
2022-12-23T01:46:24.407Z,992.63
2022-12-23T01:47:24.350Z,992.65
2022-12-23T01:48:24.373Z,992.68
2022-12-23T01:49:24.348Z,992.61
2022-12-23T01:50:24.394Z,992.58
2022-12-23T01:51:24.365Z,992.64
2022-12-23T01:52:24.348Z,992.69
2022-12-23T01:53:24.345Z,992.69
2022-12-23T01:54:24.356Z,992.66
2022-12-23T01:55:24.352Z,992.64
2022-12-23T01:56:24.346Z,992.62
2022-12-23T01:57:24.521Z,992.62
2022-12-23T01:58:24.371Z,992.64
2022-12-23T01:59:24.340Z,992.69
2022-12-23T02:00:24.347Z,992.64
2022-12-23T02:01:24.420Z,992.67
2022-12-23T02:02:24.441Z,992.69
2022-12-23T02:03:24.452Z,992.67
2022-12-23T02:04:24.343Z,992.7
2022-12-23T02:05:24.357Z,992.75
2022-12-23T02:06:24.686Z,992.73
2022-12-23T02:07:24.573Z,992.74
2022-12-23T02:08:24.634Z,992.77
2022-12-23T02:09:24.472Z,992.71
2022-12-23T02:10:24.854Z,992.73
2022-12-23T02:11:24.445Z,992.72
2022-12-23T02:12:24.712Z,992.8
2022-12-23T02:13:24.577Z,992.79
2022-12-23T02:14:24.813Z,992.83
2022-12-23T02:15:24.565Z,992.83
2022-12-23T02:16:25.447Z,992.81
2022-12-23T02:17:24.861Z,992.86
2022-12-23T02:18:24.912Z,992.83
2022-12-23T02:19:25.161Z,992.87
2022-12-23T02:20:24.373Z,992.88
2022-12-23T02:21:24.619Z,992.93
2022-12-23T02:22:24.354Z,992.88
2022-12-23T02:23:24.353Z,992.88
2022-12-23T02:24:24.369Z,992.92
2022-12-23T02:25:24.527Z,992.92
2022-12-23T02:26:24.380Z,992.91
2022-12-23T02:27:24.370Z,992.89
2022-12-23T02:28:24.363Z,992.91
2022-12-23T02:29:24.367Z,992.86
2022-12-23T02:30:24.526Z,992.91
2022-12-23T02:31:24.420Z,992.93
2022-12-23T02:32:24.353Z,992.89
2022-12-23T02:33:24.358Z,992.97
2022-12-23T02:34:24.351Z,992.97
2022-12-23T02:35:24.353Z,992.95
2022-12-23T02:36:24.357Z,992.94
2022-12-23T02:37:24.356Z,992.93
2022-12-23T02:38:24.399Z,992.93
2022-12-23T02:39:24.345Z,992.94
2022-12-23T02:40:24.345Z,992.97
2022-12-23T02:41:24.348Z,993
2022-12-23T02:42:24.355Z,992.97
2022-12-23T02:43:24.344Z,992.94
2022-12-23T02:44:24.345Z,993.01
2022-12-23T02:45:24.346Z,992.98
2022-12-23T02:46:24.390Z,993.01
2022-12-23T02:47:24.344Z,992.98
2022-12-23T02:48:24.348Z,993.02
2022-12-23T02:49:24.341Z,993.04
2022-12-23T02:50:24.349Z,993.01
2022-12-23T02:51:24.365Z,992.97
2022-12-23T02:52:24.357Z,992.99
2022-12-23T02:53:24.564Z,993.01
2022-12-23T02:54:24.342Z,993.09
2022-12-23T02:55:24.352Z,993.08
2022-12-23T02:56:24.351Z,993.1
2022-12-23T02:57:24.348Z,993.08
2022-12-23T02:58:24.347Z,993.03
2022-12-23T02:59:24.398Z,993.07
2022-12-23T03:00:24.366Z,993.08
2022-12-23T03:01:24.387Z,993.11
2022-12-23T03:02:24.514Z,993.12
2022-12-23T03:03:24.410Z,993.17
2022-12-23T03:04:24.345Z,993.19
2022-12-23T03:05:24.351Z,993.19
2022-12-23T03:06:24.435Z,993.13
2022-12-23T03:07:24.343Z,993.16
2022-12-23T03:08:24.358Z,993.17
2022-12-23T03:09:24.343Z,993.15
2022-12-23T03:10:24.339Z,993.25
2022-12-23T03:11:24.347Z,993.2
2022-12-23T03:12:24.363Z,993.19
2022-12-23T03:13:24.361Z,993.22
2022-12-23T03:14:24.344Z,993.23
2022-12-23T03:15:24.401Z,993.25
2022-12-23T03:16:24.433Z,993.24
2022-12-23T03:17:24.372Z,993.26
2022-12-23T03:18:24.361Z,993.3
2022-12-23T03:19:24.535Z,993.35
2022-12-23T03:20:24.350Z,993.34
2022-12-23T03:21:24.349Z,993.34
2022-12-23T03:22:24.365Z,993.41
2022-12-23T03:23:24.355Z,993.42
2022-12-23T03:24:24.348Z,993.44
2022-12-23T03:25:24.474Z,993.43
2022-12-23T03:26:24.338Z,993.47
2022-12-23T03:27:24.368Z,993.44
2022-12-23T03:28:24.341Z,993.52
2022-12-23T03:29:24.558Z,993.45
2022-12-23T03:30:24.349Z,993.48
2022-12-23T03:31:24.461Z,993.51
2022-12-23T03:32:24.617Z,993.5
2022-12-23T03:33:24.347Z,993.46
2022-12-23T03:34:24.352Z,993.52
2022-12-23T03:35:24.343Z,993.53
2022-12-23T03:36:24.515Z,993.49
2022-12-23T03:37:24.376Z,993.48
2022-12-23T03:38:24.349Z,993.49
2022-12-23T03:39:24.414Z,993.46
2022-12-23T03:40:24.339Z,993.49
2022-12-23T03:41:24.466Z,993.47
2022-12-23T03:42:24.580Z,993.51
2022-12-23T03:43:24.649Z,993.51
2022-12-23T03:44:24.421Z,993.51
2022-12-23T03:45:40.248Z,993.52
2022-12-23T03:46:24.666Z,993.54
2022-12-23T03:47:24.369Z,993.6
2022-12-23T03:48:24.535Z,993.58
2022-12-23T03:49:24.503Z,993.61
2022-12-23T03:50:24.612Z,993.59
2022-12-23T03:51:24.835Z,993.62
2022-12-23T03:52:24.605Z,993.64
2022-12-23T03:53:24.855Z,993.69
2022-12-23T03:54:24.646Z,993.64
2022-12-23T03:55:24.942Z,993.72
2022-12-23T03:56:24.411Z,993.69
2022-12-23T03:57:24.612Z,993.75
2022-12-23T03:58:24.484Z,993.73
2022-12-23T03:59:25.172Z,993.78
2022-12-23T04:00:24.552Z,993.76
2022-12-23T04:01:24.443Z,993.77
2022-12-23T04:02:24.776Z,993.82
2022-12-23T04:03:24.393Z,993.82
2022-12-23T04:04:24.598Z,993.84
2022-12-23T04:05:24.344Z,993.79
2022-12-23T04:06:24.572Z,993.8
2022-12-23T04:07:24.347Z,993.81
2022-12-23T04:08:24.361Z,993.78
2022-12-23T04:09:25.413Z,993.79
2022-12-23T04:10:24.351Z,993.79
2022-12-23T04:11:24.375Z,993.79
2022-12-23T04:12:24.336Z,993.79
2022-12-23T04:13:24.384Z,993.77
2022-12-23T04:14:24.342Z,993.69
2022-12-23T04:15:24.351Z,993.7
2022-12-23T04:16:24.397Z,993.73
2022-12-23T04:17:24.343Z,993.74
2022-12-23T04:18:24.348Z,993.79
2022-12-23T04:19:24.335Z,993.83
2022-12-23T04:20:24.337Z,993.71
2022-12-23T04:21:24.345Z,993.78
2022-12-23T04:22:24.339Z,993.71
2022-12-23T04:23:24.343Z,993.73
2022-12-23T04:24:24.731Z,993.74
2022-12-23T04:25:24.773Z,993.74
2022-12-23T04:26:23.797Z,993.76
2022-12-23T04:27:24.090Z,993.73
2022-12-23T04:28:24.445Z,993.77
2022-12-23T04:29:24.639Z,993.77
2022-12-23T04:30:33.826Z,993.76
2022-12-23T04:31:24.264Z,993.72
2022-12-23T04:32:24.471Z,993.72
2022-12-23T04:33:23.862Z,993.77
2022-12-23T04:34:24.128Z,993.75
2022-12-23T04:35:24.367Z,993.73
2022-12-23T04:36:24.682Z,993.75
2022-12-23T04:37:24.359Z,993.78
2022-12-23T04:38:24.346Z,993.77
2022-12-23T04:39:24.362Z,993.75
2022-12-23T04:40:24.364Z,993.77
2022-12-23T04:41:24.381Z,993.75
2022-12-23T04:42:24.352Z,993.74
2022-12-23T04:43:24.348Z,993.79
2022-12-23T04:44:24.347Z,993.77
2022-12-23T04:45:24.368Z,993.8
2022-12-23T04:46:24.390Z,993.76
2022-12-23T04:47:24.373Z,993.82
2022-12-23T04:48:24.340Z,993.83
2022-12-23T04:49:24.353Z,993.84
2022-12-23T04:50:24.353Z,993.8
2022-12-23T04:51:24.356Z,993.83
2022-12-23T04:52:24.368Z,993.79
2022-12-23T04:53:24.602Z,993.8
2022-12-23T04:54:24.349Z,993.83
2022-12-23T04:55:24.346Z,993.79
2022-12-23T04:56:24.345Z,993.82
2022-12-23T04:57:24.391Z,993.88
2022-12-23T04:58:24.369Z,993.85
2022-12-23T04:59:24.354Z,993.92
2022-12-23T05:00:24.363Z,993.91
2022-12-23T05:01:24.437Z,993.89
2022-12-23T05:02:24.440Z,993.87
2022-12-23T05:03:24.404Z,993.88
2022-12-23T05:04:24.383Z,993.86
2022-12-23T05:05:24.341Z,993.81
2022-12-23T05:06:24.374Z,993.84
2022-12-23T05:07:24.370Z,993.82
2022-12-23T05:08:24.353Z,993.84
2022-12-23T05:09:24.364Z,993.88
2022-12-23T05:10:24.409Z,993.87
2022-12-23T05:11:24.380Z,993.89
2022-12-23T05:12:24.347Z,993.87
2022-12-23T05:13:24.339Z,993.9
2022-12-23T05:14:24.346Z,993.86
2022-12-23T05:15:24.351Z,993.93
2022-12-23T05:16:24.418Z,993.95
2022-12-23T05:17:24.360Z,994
2022-12-23T05:18:24.346Z,993.99
2022-12-23T05:19:24.352Z,994.04
2022-12-23T05:20:24.350Z,994.06
2022-12-23T05:21:24.372Z,994.1
2022-12-23T05:22:24.369Z,994.12
2022-12-23T05:23:24.371Z,994.12
2022-12-23T05:24:24.450Z,994.06
2022-12-23T05:25:24.363Z,994.09
2022-12-23T05:26:24.424Z,994.1
2022-12-23T05:27:24.350Z,994.08
2022-12-23T05:28:24.342Z,994.08
2022-12-23T05:29:24.361Z,994.08
2022-12-23T05:30:24.393Z,994.11
2022-12-23T05:31:24.418Z,994.1
2022-12-23T05:32:24.342Z,994.09
2022-12-23T05:33:24.528Z,994.1
2022-12-23T05:34:24.690Z,994.14
2022-12-23T05:35:24.480Z,994.14
2022-12-23T05:36:24.540Z,994.15
2022-12-23T05:37:24.583Z,994.13
2022-12-23T05:38:24.684Z,994.12
2022-12-23T05:39:24.600Z,994.09
2022-12-23T05:40:32.224Z,994.12
2022-12-23T05:41:24.512Z,994.08
2022-12-23T05:42:25.342Z,994.08
2022-12-23T05:43:24.488Z,994.1
2022-12-23T05:44:24.772Z,994.1
2022-12-23T05:45:24.623Z,994.07
2022-12-23T05:46:28.938Z,994.11
2022-12-23T05:47:24.789Z,994.1
2022-12-23T05:48:25.066Z,994.08
2022-12-23T05:49:24.825Z,994.05
2022-12-23T05:50:25.109Z,994.05
2022-12-23T05:51:24.622Z,994.08
2022-12-23T05:52:24.407Z,994.08
2022-12-23T05:53:24.652Z,994.07
2022-12-23T05:54:24.853Z,994.05
2022-12-23T05:55:24.540Z,994.05
2022-12-23T05:56:24.344Z,994
2022-12-23T05:57:24.335Z,993.96
2022-12-23T05:58:24.350Z,994.01
2022-12-23T05:59:31.453Z,994.07
2022-12-23T06:00:24.367Z,994.07
2022-12-23T06:01:24.366Z,994.09
2022-12-23T06:02:24.423Z,994.05
2022-12-23T06:03:24.424Z,994.08
2022-12-23T06:04:24.554Z,994.06
2022-12-23T06:05:24.360Z,994.08
2022-12-23T06:06:24.375Z,994.05
2022-12-23T06:07:24.489Z,994.03
2022-12-23T06:08:24.348Z,994.07
2022-12-23T06:09:24.343Z,994.1
2022-12-23T06:10:24.348Z,994.12
2022-12-23T06:11:24.379Z,994.12
2022-12-23T06:12:24.345Z,994.14
2022-12-23T06:13:24.361Z,994.14
2022-12-23T06:14:30.395Z,994.23
2022-12-23T06:15:24.344Z,994.21
2022-12-23T06:16:24.419Z,994.26
2022-12-23T06:17:24.337Z,994.23
2022-12-23T06:18:24.433Z,994.22
2022-12-23T06:19:24.349Z,994.24
2022-12-23T06:20:24.410Z,994.27
2022-12-23T06:21:24.368Z,994.23
2022-12-23T06:22:24.353Z,994.31
2022-12-23T06:23:24.337Z,994.31
2022-12-23T06:24:24.341Z,994.36
2022-12-23T06:25:24.335Z,994.4
2022-12-23T06:26:24.379Z,994.41
2022-12-23T06:27:24.341Z,994.46
2022-12-23T06:28:24.343Z,994.46
2022-12-23T06:29:24.347Z,994.49
2022-12-23T06:30:24.345Z,994.48
2022-12-23T06:31:24.482Z,994.54
2022-12-23T06:32:24.358Z,994.5
2022-12-23T06:33:24.346Z,994.55
2022-12-23T06:34:24.471Z,994.55
2022-12-23T06:35:24.361Z,994.6
2022-12-23T06:36:24.385Z,994.56
2022-12-23T06:37:24.337Z,994.6
2022-12-23T06:38:24.351Z,994.55
2022-12-23T06:39:24.353Z,994.55
2022-12-23T06:40:24.473Z,994.53
2022-12-23T06:41:24.342Z,994.5
2022-12-23T06:42:24.346Z,994.54
2022-12-23T06:43:24.349Z,994.52
2022-12-23T06:44:24.360Z,994.54
2022-12-23T06:45:24.352Z,994.53
2022-12-23T06:46:24.381Z,994.61
2022-12-23T06:47:24.351Z,994.62
2022-12-23T06:48:24.373Z,994.6
2022-12-23T06:49:24.353Z,994.61
2022-12-23T06:50:24.348Z,994.6
2022-12-23T06:51:24.346Z,994.6
2022-12-23T06:52:24.342Z,994.58
2022-12-23T06:53:24.362Z,994.56
2022-12-23T06:54:24.361Z,994.57
2022-12-23T06:55:24.349Z,994.6
2022-12-23T06:56:24.365Z,994.61
2022-12-23T06:57:24.342Z,994.65
2022-12-23T06:58:24.358Z,994.69
2022-12-23T06:59:24.361Z,994.65
2022-12-23T07:00:24.450Z,994.64
2022-12-23T07:01:24.450Z,994.64
2022-12-23T07:02:24.553Z,994.66
2022-12-23T07:03:24.413Z,994.68
2022-12-23T07:04:24.494Z,994.69
2022-12-23T07:05:24.349Z,994.71
2022-12-23T07:06:24.378Z,994.73
2022-12-23T07:07:24.345Z,994.69
2022-12-23T07:08:24.604Z,994.69
2022-12-23T07:09:24.361Z,994.65
2022-12-23T07:10:24.353Z,994.67
2022-12-23T07:11:24.421Z,994.67
2022-12-23T07:12:24.622Z,994.65
2022-12-23T07:13:24.360Z,994.66
2022-12-23T07:14:24.367Z,994.7
2022-12-23T07:15:24.347Z,994.7
2022-12-23T07:16:24.429Z,994.7
2022-12-23T07:17:24.339Z,994.71
2022-12-23T07:18:24.352Z,994.69
2022-12-23T07:19:24.357Z,994.7
2022-12-23T07:20:24.355Z,994.71
2022-12-23T07:21:31.378Z,994.71
2022-12-23T07:22:24.346Z,994.71
2022-12-23T07:23:24.343Z,994.75
2022-12-23T07:24:24.354Z,994.74
2022-12-23T07:25:24.353Z,994.79
2022-12-23T07:26:24.484Z,994.73
2022-12-23T07:27:24.360Z,994.74
2022-12-23T07:28:24.518Z,994.75
2022-12-23T07:29:24.373Z,994.75
2022-12-23T07:30:24.636Z,994.76
2022-12-23T07:31:24.451Z,994.74
2022-12-23T07:32:24.627Z,994.75
2022-12-23T07:33:24.416Z,994.76
2022-12-23T07:34:24.357Z,994.75
2022-12-23T07:35:24.461Z,994.75
2022-12-23T07:36:24.407Z,994.81
2022-12-23T07:37:24.522Z,994.84
2022-12-23T07:38:24.358Z,994.83
2022-12-23T07:39:24.563Z,994.86
2022-12-23T07:40:24.362Z,994.86
2022-12-23T07:41:24.605Z,994.93
2022-12-23T07:42:44.693Z,994.89
2022-12-23T07:43:24.338Z,994.95
2022-12-23T07:44:24.347Z,994.95
2022-12-23T07:45:24.361Z,994.97
2022-12-23T07:46:24.509Z,995
2022-12-23T07:47:24.366Z,995.04
2022-12-23T07:48:24.343Z,995.06
2022-12-23T07:49:24.342Z,995.1
2022-12-23T07:50:24.350Z,995.11
2022-12-23T07:51:24.347Z,995.15
2022-12-23T07:52:24.357Z,995.19
2022-12-23T07:53:24.353Z,995.22
2022-12-23T07:54:24.348Z,995.24
2022-12-23T07:55:24.365Z,995.24
2022-12-23T07:56:24.346Z,995.3
2022-12-23T07:57:24.347Z,995.32
2022-12-23T07:58:24.567Z,995.3
2022-12-23T07:59:24.333Z,995.38
2022-12-23T08:00:24.598Z,995.38
2022-12-23T08:01:24.652Z,995.41
2022-12-23T08:02:24.070Z,995.4
2022-12-23T08:03:24.241Z,995.4
2022-12-23T08:04:24.479Z,995.44
2022-12-23T08:05:24.826Z,995.47
2022-12-23T08:06:23.995Z,995.42
2022-12-23T08:07:24.280Z,995.4
2022-12-23T08:08:24.580Z,995.42
2022-12-23T08:09:23.977Z,995.42
2022-12-23T08:10:24.231Z,995.41
2022-12-23T08:11:24.725Z,995.43
2022-12-23T08:12:24.902Z,995.39
2022-12-23T08:13:25.124Z,995.43
2022-12-23T08:14:24.439Z,995.41
2022-12-23T08:15:24.741Z,995.39
2022-12-23T08:16:24.601Z,995.42
2022-12-23T08:17:24.646Z,995.42
2022-12-23T08:18:24.551Z,995.35
2022-12-23T08:19:24.826Z,995.36
2022-12-23T08:20:24.655Z,995.36
2022-12-23T08:21:24.969Z,995.33
2022-12-23T08:22:24.451Z,995.28
2022-12-23T08:23:27.917Z,995.29
2022-12-23T08:24:24.511Z,995.26
2022-12-23T08:25:24.418Z,995.28
2022-12-23T08:26:24.545Z,995.28
2022-12-23T08:27:24.339Z,995.26
2022-12-23T08:28:24.345Z,995.33
2022-12-23T08:29:24.346Z,995.28
2022-12-23T08:30:24.537Z,995.29
2022-12-23T08:31:24.645Z,995.29
2022-12-23T08:32:24.349Z,995.29
2022-12-23T08:33:24.350Z,995.26
2022-12-23T08:34:24.359Z,995.27
2022-12-23T08:35:24.384Z,995.23
2022-12-23T08:36:27.450Z,995.18
2022-12-23T08:37:24.339Z,995.12
2022-12-23T08:38:24.330Z,995.16
2022-12-23T08:39:24.340Z,995.17
2022-12-23T08:40:24.406Z,995.14
2022-12-23T08:41:24.369Z,995.19
2022-12-23T08:42:24.347Z,995.22
2022-12-23T08:43:25.303Z,995.27
2022-12-23T08:44:24.341Z,995.29
2022-12-23T08:45:24.348Z,995.32
2022-12-23T08:46:24.415Z,995.32
2022-12-23T08:47:24.341Z,995.36
2022-12-23T08:48:24.343Z,995.37
2022-12-23T08:49:24.355Z,995.35
2022-12-23T08:50:24.350Z,995.34
2022-12-23T08:51:24.477Z,995.34
2022-12-23T08:52:24.362Z,995.3
2022-12-23T08:53:24.354Z,995.34
2022-12-23T08:54:24.360Z,995.3
2022-12-23T08:55:24.353Z,995.32
2022-12-23T08:56:24.375Z,995.29
2022-12-23T08:57:24.353Z,995.34
2022-12-23T08:58:24.347Z,995.3
2022-12-23T08:59:24.353Z,995.33
2022-12-23T09:00:24.407Z,995.37
2022-12-23T09:01:24.457Z,995.37
2022-12-23T09:02:24.456Z,995.37
2022-12-23T09:03:24.512Z,995.33
2022-12-23T09:04:24.359Z,995.32
2022-12-23T09:05:24.345Z,995.3
2022-12-23T09:06:31.374Z,995.29
2022-12-23T09:07:24.344Z,995.26
2022-12-23T09:08:24.428Z,995.24
2022-12-23T09:09:24.363Z,995.22
2022-12-23T09:10:24.343Z,995.22
2022-12-23T09:11:24.365Z,995.17
2022-12-23T09:12:24.345Z,995.19
2022-12-23T09:13:35.759Z,995.23
2022-12-23T09:14:24.338Z,995.27
2022-12-23T09:15:24.356Z,995.28
2022-12-23T09:16:24.437Z,995.24
2022-12-23T09:17:24.677Z,995.3
2022-12-23T09:18:24.423Z,995.29
2022-12-23T09:19:24.342Z,995.32
2022-12-23T09:20:24.517Z,995.3
2022-12-23T09:21:24.464Z,995.3
2022-12-23T09:22:24.572Z,995.29
2022-12-23T09:23:24.389Z,995.3
2022-12-23T09:24:24.663Z,995.33
2022-12-23T09:25:24.346Z,995.33
2022-12-23T09:26:24.640Z,995.34
2022-12-23T09:27:24.507Z,995.37
2022-12-23T09:28:24.713Z,995.37
2022-12-23T09:29:24.468Z,995.39
2022-12-23T09:30:24.348Z,995.39
2022-12-23T09:31:25.283Z,995.39
2022-12-23T09:32:24.342Z,995.37
2022-12-23T09:33:24.366Z,995.41
2022-12-23T09:34:24.365Z,995.47
2022-12-23T09:35:24.341Z,995.45
2022-12-23T09:36:24.379Z,995.38
2022-12-23T09:37:24.349Z,995.42
2022-12-23T09:38:24.349Z,995.44
2022-12-23T09:39:24.377Z,995.37
2022-12-23T09:40:24.363Z,995.34
2022-12-23T09:41:24.371Z,995.29
2022-12-23T09:42:24.336Z,995.3
2022-12-23T09:43:24.338Z,995.24
2022-12-23T09:44:24.360Z,995.19
2022-12-23T09:45:24.334Z,995.24
2022-12-23T09:46:24.403Z,995.23
2022-12-23T09:47:24.356Z,995.24
2022-12-23T09:48:24.345Z,995.21
2022-12-23T09:49:24.355Z,995.19
2022-12-23T09:50:24.372Z,995.19
2022-12-23T09:51:24.457Z,995.24
2022-12-23T09:52:24.779Z,995.3
2022-12-23T09:53:24.365Z,995.29
2022-12-23T09:54:24.348Z,995.23
2022-12-23T09:55:24.341Z,995.28
2022-12-23T09:56:24.335Z,995.27
2022-12-23T09:57:24.347Z,995.23
2022-12-23T09:58:24.339Z,995.19
2022-12-23T09:59:24.356Z,995.17
2022-12-23T10:00:24.340Z,995.24
2022-12-23T10:01:24.385Z,995.21
2022-12-23T10:02:24.433Z,995.19
2022-12-23T10:03:24.817Z,995.16
2022-12-23T10:04:24.384Z,995.18
2022-12-23T10:05:24.357Z,995.18
2022-12-23T10:06:24.433Z,995.12
2022-12-23T10:07:24.355Z,995.14
2022-12-23T10:08:24.353Z,995.12
2022-12-23T10:09:24.362Z,995.13
2022-12-23T10:10:24.344Z,995.12
2022-12-23T10:11:24.343Z,995.12
2022-12-23T10:12:35.917Z,995.15
2022-12-23T10:13:24.349Z,995.11
2022-12-23T10:14:24.362Z,995.1
2022-12-23T10:15:24.362Z,995.1
2022-12-23T10:16:24.447Z,995.08
2022-12-23T10:17:24.344Z,995.07
2022-12-23T10:18:24.354Z,995.07
2022-12-23T10:19:24.355Z,995
2022-12-23T10:20:24.411Z,994.96
2022-12-23T10:21:24.445Z,994.95
2022-12-23T10:22:24.344Z,994.91
2022-12-23T10:23:24.455Z,994.86
2022-12-23T10:24:24.366Z,994.9
2022-12-23T10:25:24.342Z,994.85
2022-12-23T10:26:24.342Z,994.9
2022-12-23T10:27:24.346Z,994.85
2022-12-23T10:28:29.653Z,994.87
2022-12-23T10:29:24.337Z,994.83
2022-12-23T10:30:57.042Z,994.84
2022-12-23T10:31:40.080Z,994.89
2022-12-23T10:32:24.353Z,994.9
2022-12-23T10:33:24.349Z,994.89
2022-12-23T10:34:24.355Z,994.97
2022-12-23T10:35:24.381Z,994.95
2022-12-23T10:36:24.370Z,994.95
2022-12-23T10:37:24.348Z,994.98
2022-12-23T10:38:24.352Z,994.96
2022-12-23T10:39:24.611Z,994.96
2022-12-23T10:40:24.341Z,994.95
2022-12-23T10:41:24.339Z,994.97
2022-12-23T10:42:24.359Z,994.92
2022-12-23T10:43:24.592Z,994.93
2022-12-23T10:44:24.371Z,994.89
2022-12-23T10:45:24.501Z,994.9
2022-12-23T10:46:24.445Z,994.89
2022-12-23T10:47:24.699Z,994.88
2022-12-23T10:48:24.351Z,994.87
2022-12-23T10:49:24.355Z,994.85
2022-12-23T10:50:24.350Z,994.87
2022-12-23T10:51:24.596Z,994.83
2022-12-23T10:52:24.346Z,994.83
2022-12-23T10:53:24.346Z,994.8
2022-12-23T10:54:24.362Z,994.82
2022-12-23T10:55:33.069Z,994.81
2022-12-23T10:56:24.373Z,994.77
2022-12-23T10:57:24.342Z,994.78
2022-12-23T10:58:24.347Z,994.78
2022-12-23T10:59:24.435Z,994.77
2022-12-23T11:00:24.356Z,994.79
2022-12-23T11:01:30.607Z,994.77
2022-12-23T11:02:24.481Z,994.73
2022-12-23T11:03:24.561Z,994.72
2022-12-23T11:04:24.356Z,994.66
2022-12-23T11:05:24.501Z,994.62
2022-12-23T11:06:24.343Z,994.61
2022-12-23T11:07:45.308Z,994.51
2022-12-23T11:08:24.354Z,994.47
2022-12-23T11:09:24.600Z,994.42
2022-12-23T11:10:24.353Z,994.38
2022-12-23T11:11:24.342Z,994.35
2022-12-23T11:12:24.446Z,994.33
2022-12-23T11:13:24.340Z,994.3
2022-12-23T11:14:24.461Z,994.28
2022-12-23T11:15:24.342Z,994.32
2022-12-23T11:16:24.594Z,994.32
2022-12-23T11:17:24.338Z,994.26
2022-12-23T11:18:24.337Z,994.26
2022-12-23T11:19:24.343Z,994.19
2022-12-23T11:20:24.335Z,994.23
2022-12-23T11:21:24.331Z,994.19
2022-12-23T11:22:24.334Z,994.21
2022-12-23T11:23:24.336Z,994.27
2022-12-23T11:24:24.341Z,994.23
2022-12-23T11:25:24.333Z,994.27
2022-12-23T11:26:24.333Z,994.26
2022-12-23T11:27:24.338Z,994.24
2022-12-23T11:28:24.335Z,994.25
2022-12-23T11:29:24.350Z,994.24
2022-12-23T11:30:24.350Z,994.23
2022-12-23T11:31:24.489Z,994.19
2022-12-23T11:32:24.331Z,994.19
2022-12-23T11:33:24.337Z,994.16
2022-12-23T11:34:24.348Z,994.08
2022-12-23T11:35:24.477Z,994.09
2022-12-23T11:36:25.656Z,994.07
2022-12-23T11:37:23.749Z,994.06
2022-12-23T11:38:24.030Z,994.11
2022-12-23T11:39:24.306Z,994.03
2022-12-23T11:40:24.589Z,993.95
2022-12-23T11:41:24.878Z,993.98
2022-12-23T11:42:24.146Z,993.96
2022-12-23T11:43:24.417Z,993.9
2022-12-23T11:44:24.700Z,993.89
2022-12-23T11:45:24.058Z,993.87
2022-12-23T11:46:24.500Z,993.78
2022-12-23T11:47:24.591Z,993.84
2022-12-23T11:48:24.337Z,993.82
2022-12-23T11:49:24.574Z,993.79
2022-12-23T11:50:24.613Z,993.79
2022-12-23T11:51:24.873Z,993.69
2022-12-23T11:52:24.403Z,993.66
2022-12-23T11:53:24.688Z,993.66
2022-12-23T11:54:24.381Z,993.64
2022-12-23T11:55:24.653Z,993.6
2022-12-23T11:56:24.537Z,993.6
2022-12-23T11:57:24.368Z,993.59
2022-12-23T11:58:24.383Z,993.56
2022-12-23T11:59:24.419Z,993.52
2022-12-23T12:00:24.847Z,993.53
2022-12-23T12:01:24.336Z,993.49
2022-12-23T12:02:24.393Z,993.51
2022-12-23T12:03:24.376Z,993.54
2022-12-23T12:04:24.349Z,993.57
2022-12-23T12:05:24.357Z,993.66
2022-12-23T12:06:24.342Z,993.65
2022-12-23T12:07:24.347Z,993.64
2022-12-23T12:08:24.344Z,993.61
2022-12-23T12:09:24.351Z,993.54
2022-12-23T12:10:24.383Z,993.47
2022-12-23T12:11:24.353Z,993.41
2022-12-23T12:12:24.348Z,993.41
2022-12-23T12:13:24.384Z,993.42
2022-12-23T12:14:24.354Z,993.46
2022-12-23T12:15:24.375Z,993.45
2022-12-23T12:16:24.379Z,993.46
2022-12-23T12:17:24.427Z,993.43
2022-12-23T12:18:24.370Z,993.41
2022-12-23T12:19:24.351Z,993.37
2022-12-23T12:20:24.344Z,993.4
2022-12-23T12:21:24.361Z,993.37
2022-12-23T12:22:24.352Z,993.36
2022-12-23T12:23:24.349Z,993.34
2022-12-23T12:24:24.342Z,993.34
2022-12-23T12:25:24.400Z,993.36
2022-12-23T12:26:24.382Z,993.35
2022-12-23T12:27:24.430Z,993.34
2022-12-23T12:28:24.429Z,993.27
2022-12-23T12:29:24.361Z,993.26
2022-12-23T12:30:24.368Z,993.26
2022-12-23T12:31:24.435Z,993.26